createdAt,value
2023-05-12T00:02:17.827Z,47.99
2023-05-12T00:04:46.527Z,48.46
2023-05-12T00:07:15.610Z,49.26
2023-05-12T00:09:43.835Z,47.73
2023-05-12T00:12:12.605Z,48.65
2023-05-12T00:14:42.379Z,48.46
2023-05-12T00:17:10.508Z,48.79
2023-05-12T00:19:39.802Z,48.45
2023-05-12T00:22:08.055Z,48.59
2023-05-12T00:24:36.312Z,48.86
2023-05-12T00:27:04.856Z,49.08
2023-05-12T00:29:34.412Z,49.54
2023-05-12T00:32:07.146Z,49.47
2023-05-12T00:34:35.313Z,49.95
2023-05-12T00:37:03.820Z,49.86
2023-05-12T00:39:31.953Z,49.59
2023-05-12T00:42:01.071Z,49.83
2023-05-12T00:44:29.294Z,49.73
2023-05-12T00:46:57.934Z,49.69
2023-05-12T00:49:28.541Z,50.01
2023-05-12T00:51:57.064Z,50.75
2023-05-12T00:54:26.575Z,50.28
2023-05-12T00:56:54.777Z,50.62
2023-05-12T00:59:23.320Z,50.86
2023-05-12T01:01:51.662Z,51.26
2023-05-12T01:04:19.982Z,51.59
2023-05-12T01:06:57.139Z,52.30
2023-05-12T01:09:26.329Z,52.52
2023-05-12T01:11:54.808Z,52.48
2023-05-12T01:14:31.885Z,53.01
2023-05-12T01:17:03.682Z,53.03
2023-05-12T01:19:40.921Z,53.01
2023-05-12T01:22:12.375Z,53.22
2023-05-12T01:24:47.656Z,53.63
2023-05-12T01:27:18.972Z,53.34
2023-05-12T01:29:48.351Z,54.46
2023-05-12T01:32:34.374Z,55.73
2023-05-12T01:35:03.155Z,56.17
2023-05-12T01:37:31.317Z,55.74
2023-05-12T01:39:59.389Z,56.43
2023-05-12T01:42:29.028Z,55.57
2023-05-12T01:44:57.216Z,55.21
2023-05-12T01:47:25.314Z,56.87
2023-05-12T01:49:54.516Z,56.94
2023-05-12T01:52:23.235Z,56.42
2023-05-12T01:54:51.569Z,57.74
2023-05-12T01:57:19.902Z,57.32
2023-05-12T01:59:49.840Z,56.83
2023-05-12T02:02:18.033Z,56.17
2023-05-12T02:04:46.227Z,57.78
2023-05-12T02:07:16.600Z,59.08
2023-05-12T02:09:44.987Z,58.59
2023-05-12T02:12:13.549Z,58.79
2023-05-12T02:14:41.749Z,59.04
2023-05-12T02:17:15.049Z,59.12
2023-05-12T02:19:43.210Z,58.84
2023-05-12T02:22:11.846Z,59.78
2023-05-12T02:24:39.962Z,60.17
2023-05-12T02:27:08.157Z,59.13
2023-05-12T02:29:36.428Z,60.18
2023-05-12T02:32:04.892Z,59.68
2023-05-12T02:34:34.929Z,58.85
2023-05-12T02:37:03.089Z,60.12
2023-05-12T02:39:31.349Z,60.13
2023-05-12T02:41:59.546Z,59.06
2023-05-12T02:44:27.881Z,59.67
2023-05-12T02:46:58.085Z,59.94
2023-05-12T02:49:26.384Z,59.79
2023-05-12T02:51:56.839Z,58.63
2023-05-12T02:54:25.120Z,58.82
2023-05-12T02:56:53.316Z,58.83
2023-05-12T02:59:21.605Z,58.53
2023-05-12T03:01:50.095Z,58.50
2023-05-12T03:04:18.386Z,58.37
2023-05-12T03:06:48.176Z,58.50
2023-05-12T03:09:17.987Z,58.35
2023-05-12T03:11:46.296Z,58.42
2023-05-12T03:14:14.507Z,57.94
2023-05-12T03:16:48.996Z,58.00
2023-05-12T03:19:17.315Z,56.90
2023-05-12T03:21:45.553Z,57.31
2023-05-12T03:24:13.906Z,57.34
2023-05-12T03:26:43.587Z,58.34
2023-05-12T03:29:11.803Z,57.79
2023-05-12T03:31:40.129Z,58.03
2023-05-12T03:34:08.877Z,58.31
2023-05-12T03:36:37.557Z,57.39
2023-05-12T03:39:08.802Z,56.87
2023-05-12T03:41:37.291Z,55.72
2023-05-12T03:44:08.707Z,56.22
2023-05-12T03:46:37.162Z,55.84
2023-05-12T03:49:06.030Z,55.78
2023-05-12T03:51:34.245Z,54.60
2023-05-12T03:54:02.804Z,54.71
2023-05-12T03:56:30.954Z,53.58
2023-05-12T03:58:59.307Z,53.43
2023-05-12T04:01:29.253Z,53.69
2023-05-12T04:03:57.680Z,54.24
2023-05-12T04:06:27.139Z,55.11
2023-05-12T04:08:55.291Z,53.53
2023-05-12T04:11:23.715Z,53.00
2023-05-12T04:13:51.867Z,53.42
2023-05-12T04:16:21.190Z,54.33
2023-05-12T04:18:51.466Z,52.91
2023-05-12T04:21:19.813Z,52.73
2023-05-12T04:23:48.456Z,52.18
2023-05-12T04:26:22.363Z,51.10
2023-05-12T04:28:50.643Z,50.70
2023-05-12T04:31:19.042Z,50.40
2023-05-12T04:33:48.518Z,50.02
2023-05-12T04:36:18.195Z,49.76
2023-05-12T04:38:46.733Z,49.51
2023-05-12T04:41:22.746Z,49.63
2023-05-12T04:46:22.574Z,48.67
2023-05-12T04:48:50.807Z,48.90
2023-05-12T04:51:20.879Z,48.88
2023-05-12T04:53:49.134Z,47.99
2023-05-12T04:56:24.024Z,48.06
2023-05-12T04:58:52.152Z,47.40
2023-05-12T05:01:20.941Z,47.80
2023-05-12T05:03:49.895Z,47.34
2023-05-12T05:06:20.292Z,47.18
2023-05-12T05:08:48.646Z,47.15
2023-05-12T05:11:23.997Z,46.70
2023-05-12T05:13:52.252Z,46.00
2023-05-12T05:16:20.676Z,46.61
2023-05-12T05:18:48.991Z,46.21
2023-05-12T05:21:17.245Z,46.86
2023-05-12T05:23:46.811Z,46.35
2023-05-12T05:26:15.081Z,45.86
2023-05-12T05:28:43.221Z,45.77
2023-05-12T05:31:16.707Z,45.53
2023-05-12T05:33:45.968Z,45.47
2023-05-12T05:36:14.668Z,44.96
2023-05-12T05:38:43.028Z,44.71
2023-05-12T05:41:12.784Z,45.17
2023-05-12T05:43:40.956Z,45.22
2023-05-12T05:46:09.594Z,45.20
2023-05-12T05:48:37.849Z,43.92
2023-05-12T05:51:13.323Z,44.14
2023-05-12T05:53:41.488Z,44.19
2023-05-12T05:56:09.688Z,43.90
2023-05-12T05:58:39.440Z,43.85
2023-05-12T06:01:08.081Z,43.89
2023-05-12T06:03:43.549Z,42.94
2023-05-12T06:06:13.062Z,43.41
2023-05-12T06:08:41.503Z,42.66
2023-05-12T06:11:10.084Z,42.70
2023-05-12T06:13:39.894Z,42.61
2023-05-12T06:16:08.238Z,42.83
2023-05-12T06:18:38.340Z,42.31
2023-05-12T06:21:07.299Z,41.69
2023-05-12T06:23:35.562Z,41.59
2023-05-12T06:26:04.213Z,41.78
2023-05-12T06:28:32.383Z,41.27
2023-05-12T06:31:02.395Z,40.79
2023-05-12T06:33:30.639Z,40.08
2023-05-12T06:35:59.479Z,40.07
2023-05-12T06:38:27.744Z,40.09
2023-05-12T06:40:56.330Z,39.93
2023-05-12T06:43:25.069Z,39.20
2023-05-12T06:45:53.305Z,39.43
2023-05-12T06:48:23.228Z,39.66
2023-05-12T06:50:51.549Z,39.17
2023-05-12T06:53:19.815Z,38.74
2023-05-12T06:55:48.660Z,38.24
2023-05-12T06:58:16.830Z,37.63
2023-05-12T07:00:49.016Z,37.31
2023-05-12T07:03:17.783Z,37.57
2023-05-12T07:05:47.899Z,37.21
2023-05-12T07:08:16.235Z,37.12
2023-05-12T07:10:44.463Z,36.94
2023-05-12T07:13:13.072Z,36.93
2023-05-12T07:15:41.882Z,35.99
2023-05-12T07:18:10.180Z,34.57
2023-05-12T07:20:39.075Z,34.83
2023-05-12T07:23:09.360Z,34.71
2023-05-12T07:25:37.990Z,35.45
2023-05-12T07:28:06.801Z,35.22
2023-05-12T07:30:34.982Z,34.81
2023-05-12T07:33:03.240Z,35.32
2023-05-12T07:35:31.776Z,34.11
2023-05-12T07:37:59.924Z,34.71
2023-05-12T07:40:30.891Z,35.03
2023-05-12T07:42:59.651Z,33.41
2023-05-12T07:45:28.457Z,34.01
2023-05-12T07:48:02.978Z,33.13
2023-05-12T07:50:31.350Z,32.74
2023-05-12T07:52:59.570Z,32.43
2023-05-12T07:55:39.287Z,32.36
2023-05-12T07:58:07.461Z,32.66
2023-05-12T08:00:35.846Z,31.54
2023-05-12T08:03:04.593Z,31.81
2023-05-12T08:05:32.967Z,31.36
2023-05-12T08:08:03.023Z,30.33
2023-05-12T08:10:33.202Z,31.70
2023-05-12T08:13:01.415Z,31.60
2023-05-12T08:15:29.712Z,32.06
2023-05-12T08:17:58.204Z,32.06
2023-05-12T08:20:26.856Z,31.99
2023-05-12T08:22:55.028Z,31.60
2023-05-12T08:25:23.707Z,31.32
2023-05-12T08:27:53.286Z,31.21
2023-05-12T08:30:21.865Z,30.95
2023-05-12T08:32:50.209Z,31.39
2023-05-12T08:35:19.889Z,30.79
2023-05-12T08:37:48.729Z,30.83
2023-05-12T08:40:21.906Z,30.44
2023-05-12T08:43:02.052Z,29.91
2023-05-12T08:45:30.969Z,30.96
2023-05-12T08:48:01.196Z,30.88
2023-05-12T08:50:32.323Z,29.71
2023-05-12T08:53:01.198Z,29.93
2023-05-12T08:55:33.519Z,29.16
2023-05-12T08:58:04.846Z,28.53
2023-05-12T09:00:36.160Z,28.62
2023-05-12T09:03:07.492Z,28.03
2023-05-12T09:05:45.486Z,28.94
2023-05-12T09:08:15.572Z,27.61
2023-05-12T09:10:45.257Z,28.16
2023-05-12T09:14:05.808Z,27.43
2023-05-12T09:16:13.268Z,28.31
2023-05-12T09:18:49.453Z,28.55
2023-05-12T09:21:17.823Z,27.00
2023-05-12T09:23:57.082Z,28.02
2023-05-12T09:26:27.102Z,27.02
2023-05-12T09:29:05.005Z,27.50
2023-05-12T09:31:33.713Z,27.49
2023-05-12T09:34:02.472Z,27.52
2023-05-12T09:36:56.297Z,26.89
2023-05-12T09:39:24.570Z,26.68
2023-05-12T09:41:53.185Z,27.16
2023-05-12T09:44:42.676Z,26.80
2023-05-12T09:47:11.383Z,26.17
2023-05-12T09:49:39.962Z,26.23
2023-05-12T09:52:08.171Z,26.38
2023-05-12T09:54:36.564Z,26.30
2023-05-12T09:57:06.002Z,26.17
2023-05-12T09:59:39.337Z,26.12
2023-05-12T10:02:11.255Z,25.79
2023-05-12T10:04:45.817Z,25.05
2023-05-12T10:07:18.081Z,25.14
2023-05-12T10:09:48.517Z,24.77
2023-05-12T10:12:18.546Z,24.63
2023-05-12T10:14:49.471Z,25.37
2023-05-12T10:17:20.044Z,24.90
2023-05-12T10:19:49.483Z,24.36
2023-05-12T10:22:21.211Z,24.83
2023-05-12T10:24:50.453Z,22.73
2023-05-12T10:27:20.733Z,21.04
2023-05-12T10:29:53.493Z,22.40
2023-05-12T10:32:42.077Z,23.20
2023-05-12T10:35:11.532Z,24.70
2023-05-12T10:37:41.060Z,23.86
2023-05-12T10:40:11.187Z,24.53
2023-05-12T10:42:43.225Z,24.10
2023-05-12T10:45:22.859Z,24.55
2023-05-12T10:47:52.192Z,25.05
2023-05-12T10:50:28.367Z,25.45
2023-05-12T10:53:02.989Z,25.23
2023-05-12T10:55:36.672Z,24.97
2023-05-12T10:58:12.252Z,24.92
2023-05-12T11:00:51.952Z,25.83
2023-05-12T11:03:48.596Z,25.95
2023-05-12T11:06:21.370Z,25.03
2023-05-12T11:08:50.663Z,26.29
2023-05-12T11:11:20.219Z,25.97
2023-05-12T11:13:48.602Z,25.97
2023-05-12T11:16:18.253Z,26.11
2023-05-12T11:18:46.648Z,24.74
2023-05-12T11:21:15.702Z,25.54
2023-05-12T11:23:43.953Z,25.62
2023-05-12T11:26:18.761Z,24.99
2023-05-12T11:28:47.318Z,24.89
2023-05-12T11:31:21.039Z,24.98
2023-05-12T11:33:58.518Z,25.86
2023-05-12T11:36:38.320Z,24.55
2023-05-12T11:39:08.183Z,24.46
2023-05-12T11:41:37.036Z,24.98
2023-05-12T11:44:15.007Z,25.44
2023-05-12T11:46:55.516Z,25.24
2023-05-12T11:49:24.321Z,26.28
2023-05-12T11:51:54.453Z,25.84
2023-05-12T11:54:23.413Z,25.38
2023-05-12T11:56:52.719Z,25.10
2023-05-12T11:59:32.042Z,25.57
2023-05-12T12:02:02.899Z,25.19
2023-05-12T12:04:40.739Z,24.09
2023-05-12T12:07:10.849Z,24.46
2023-05-12T12:09:40.895Z,24.85
2023-05-12T12:12:12.180Z,24.88
2023-05-12T12:14:41.682Z,24.93
2023-05-12T12:17:11.228Z,25.00
2023-05-12T12:19:39.716Z,24.66
2023-05-12T12:22:07.958Z,24.94
2023-05-12T12:24:36.183Z,24.54
2023-05-12T12:27:05.699Z,25.33
2023-05-12T12:29:43.267Z,24.85
2023-05-12T12:32:12.799Z,24.37
2023-05-12T12:34:41.521Z,24.69
2023-05-12T12:37:09.687Z,25.06
2023-05-12T12:39:38.220Z,24.62
2023-05-12T12:42:06.968Z,24.39
2023-05-12T12:44:35.181Z,24.03
2023-05-12T12:47:03.693Z,24.14
2023-05-12T12:49:33.444Z,23.43
2023-05-12T12:52:02.180Z,24.43
2023-05-12T12:54:30.354Z,24.20
2023-05-12T12:56:58.528Z,24.18
2023-05-12T12:59:30.182Z,24.31
2023-05-12T13:02:00.216Z,25.03
2023-05-12T13:04:29.064Z,24.58
2023-05-12T13:07:00.994Z,24.67
2023-05-12T13:09:29.294Z,25.18
2023-05-12T13:11:58.220Z,24.06
2023-05-12T13:14:27.031Z,24.27
2023-05-12T13:16:55.207Z,24.32
2023-05-12T13:19:23.365Z,24.44
2023-05-12T13:21:51.585Z,24.89
2023-05-12T13:24:36.437Z,24.45
2023-05-12T13:27:08.433Z,24.54
2023-05-12T13:29:37.185Z,24.50
2023-05-12T13:32:05.536Z,23.96
2023-05-12T13:34:33.680Z,24.73
2023-05-12T13:37:02.044Z,23.90
2023-05-12T13:39:30.222Z,24.40
2023-05-12T13:41:59.928Z,23.78
2023-05-12T13:44:37.993Z,24.12
2023-05-12T13:47:10.044Z,25.08
2023-05-12T13:49:38.477Z,24.65
2023-05-12T13:52:07.376Z,24.02
2023-05-12T13:54:35.696Z,23.85
2023-05-12T13:57:04.682Z,24.10
2023-05-12T13:59:33.079Z,23.40
2023-05-12T14:02:03.059Z,23.48
2023-05-12T14:04:31.392Z,23.55
2023-05-12T14:06:59.961Z,24.12
2023-05-12T14:09:28.611Z,24.06
2023-05-12T14:11:58.102Z,24.24
2023-05-12T14:14:26.339Z,24.16
2023-05-12T14:16:55.226Z,23.31
2023-05-12T14:19:24.981Z,23.57
2023-05-12T14:21:53.838Z,23.87
2023-05-12T14:24:22.213Z,24.33
2023-05-12T14:27:00.074Z,23.54
2023-05-12T14:29:28.428Z,22.99
2023-05-12T14:31:56.804Z,23.50
2023-05-12T14:34:26.478Z,23.33
2023-05-12T14:36:54.845Z,23.50
2023-05-12T14:39:23.032Z,23.71
2023-05-12T14:42:00.876Z,24.09
2023-05-12T14:44:30.797Z,24.25
2023-05-12T14:46:59.030Z,24.53
2023-05-12T14:49:28.687Z,24.23
2023-05-12T14:51:56.758Z,24.38
2023-05-12T14:54:25.989Z,24.30
2023-05-12T14:56:54.893Z,24.54
2023-05-12T14:59:23.587Z,24.11
2023-05-12T15:01:52.625Z,23.48
2023-05-12T15:04:20.924Z,24.38
2023-05-12T15:06:50.984Z,24.45
2023-05-12T15:09:19.329Z,24.57
2023-05-12T15:11:49.748Z,24.24
2023-05-12T15:14:17.954Z,23.25
2023-05-12T15:16:46.240Z,23.20
2023-05-12T15:19:15.574Z,23.52
2023-05-12T15:21:43.862Z,23.71
2023-05-12T15:24:13.340Z,24.09
2023-05-12T15:26:45.265Z,23.40
2023-05-12T15:29:13.327Z,22.73
2023-05-12T15:31:41.624Z,21.95
2023-05-12T15:34:10.192Z,21.18
2023-05-12T15:36:55.479Z,19.59
2023-05-12T15:39:25.019Z,19.35
2023-05-12T15:41:53.250Z,18.37
2023-05-12T15:44:23.191Z,17.62
2023-05-12T15:46:51.586Z,17.64
2023-05-12T15:49:19.866Z,16.63
2023-05-12T15:51:48.162Z,16.56
2023-05-12T15:54:20.414Z,16.30
2023-05-12T15:56:51.168Z,15.36
2023-05-12T15:59:19.921Z,16.26
2023-05-12T16:01:49.020Z,15.93
2023-05-12T16:04:17.316Z,14.85
2023-05-12T16:06:46.007Z,15.39
2023-05-12T16:09:14.332Z,15.54
2023-05-12T16:11:42.760Z,15.86
2023-05-12T16:14:15.732Z,15.58
2023-05-12T16:16:48.357Z,16.44
2023-05-12T16:19:16.764Z,16.83
2023-05-12T16:21:45.535Z,16.85
2023-05-12T16:24:14.174Z,17.17
2023-05-12T16:26:42.550Z,16.90
2023-05-12T16:29:11.087Z,17.13
2023-05-12T16:31:40.896Z,17.95
2023-05-12T16:34:09.529Z,17.41
2023-05-12T16:36:37.712Z,17.51
2023-05-12T16:39:14.457Z,17.46
2023-05-12T16:41:42.639Z,17.67
2023-05-12T16:44:11.950Z,17.52
2023-05-12T16:46:43.278Z,17.84
2023-05-12T16:49:11.991Z,17.61
2023-05-12T16:51:40.184Z,17.67
2023-05-12T16:54:14.953Z,17.98
2023-05-12T16:56:43.414Z,17.28
2023-05-12T16:59:12.013Z,17.81
2023-05-12T17:01:42.863Z,17.68
2023-05-12T17:04:12.461Z,18.45
2023-05-12T17:06:40.896Z,18.82
2023-05-12T17:09:19.180Z,18.83
2023-05-12T17:11:47.787Z,19.67
2023-05-12T17:14:17.811Z,20.27
2023-05-12T17:16:49.179Z,20.24
2023-05-12T17:19:17.556Z,20.63
2023-05-12T17:21:45.872Z,20.55
2023-05-12T17:24:17.815Z,20.65
2023-05-12T17:26:46.161Z,20.50
2023-05-12T17:29:17.112Z,20.50
2023-05-12T17:31:45.818Z,20.24
2023-05-12T17:34:15.530Z,20.05
2023-05-12T17:36:43.825Z,20.33
2023-05-12T17:39:15.863Z,20.55
2023-05-12T17:41:44.839Z,20.17
2023-05-12T17:44:14.882Z,20.84
2023-05-12T17:46:43.651Z,20.66
2023-05-12T17:49:12.093Z,21.05
2023-05-12T17:51:43.087Z,20.70
2023-05-12T17:54:11.396Z,20.85
2023-05-12T17:56:39.520Z,21.29
2023-05-12T17:59:10.876Z,21.31
2023-05-12T18:01:39.207Z,21.36
2023-05-12T18:04:07.537Z,21.04
2023-05-12T18:06:35.705Z,21.66
2023-05-12T18:09:05.576Z,21.85
2023-05-12T18:11:34.389Z,21.56
2023-05-12T18:14:06.031Z,21.63
2023-05-12T18:16:34.825Z,22.74
2023-05-12T18:19:04.006Z,21.91
2023-05-12T18:21:32.780Z,23.08
2023-05-12T18:24:00.966Z,23.46
2023-05-12T18:26:31.246Z,24.20
2023-05-12T18:28:59.554Z,25.03
2023-05-12T18:31:27.924Z,25.68
2023-05-12T18:33:59.573Z,26.33
2023-05-12T18:36:28.801Z,26.63
2023-05-12T18:38:57.105Z,26.69
2023-05-12T18:41:25.312Z,27.40
2023-05-12T18:43:55.376Z,27.35
2023-05-12T18:46:23.657Z,27.43
2023-05-12T18:48:51.928Z,28.23
2023-05-12T18:51:21.181Z,28.93
2023-05-12T18:53:52.128Z,29.94
2023-05-12T18:56:20.399Z,30.18
2023-05-12T18:58:48.796Z,30.58
2023-05-12T19:01:18.625Z,31.06
2023-05-12T19:03:47.031Z,31.66
2023-05-12T19:06:18.581Z,32.32
2023-05-12T19:08:46.958Z,33.34
2023-05-12T19:11:15.185Z,33.17
2023-05-12T19:13:45.406Z,33.56
2023-05-12T19:16:13.730Z,33.85
2023-05-12T19:18:44.159Z,34.00
2023-05-12T19:21:12.889Z,34.22
2023-05-12T19:23:41.040Z,34.47
2023-05-12T19:26:10.128Z,35.30
2023-05-12T19:28:38.568Z,35.62
2023-05-12T19:31:07.099Z,35.98
2023-05-12T19:33:35.551Z,35.97
2023-05-12T19:36:06.720Z,36.72
2023-05-12T19:38:35.413Z,36.61
2023-05-12T19:41:03.590Z,37.34
2023-05-12T19:43:31.776Z,37.10
2023-05-12T19:46:00.633Z,37.57
2023-05-12T19:48:28.948Z,38.21
2023-05-12T19:50:57.100Z,38.16
2023-05-12T19:53:26.867Z,38.53
2023-05-12T19:55:55.364Z,38.77
2023-05-12T19:58:23.569Z,39.74
2023-05-12T20:00:51.677Z,39.47
2023-05-12T20:03:20.051Z,39.72
2023-05-12T20:05:48.720Z,40.07
2023-05-12T20:08:17.544Z,40.34
2023-05-12T20:10:47.338Z,40.16
2023-05-12T20:13:16.378Z,40.19
2023-05-12T20:15:44.516Z,40.73
2023-05-12T20:18:14.826Z,40.37
2023-05-12T20:20:43.459Z,40.99
2023-05-12T20:23:11.993Z,41.80
2023-05-12T20:25:40.062Z,41.28
2023-05-12T20:28:11.883Z,41.45
2023-05-12T20:30:40.174Z,41.96
2023-05-12T20:33:08.935Z,42.01
2023-05-12T20:35:37.174Z,42.73
2023-05-12T20:38:05.391Z,42.11
2023-05-12T20:40:34.786Z,42.54
2023-05-12T20:43:03.818Z,42.73
2023-05-12T20:45:34.122Z,42.45
2023-05-12T20:48:02.504Z,43.26
2023-05-12T20:50:32.732Z,43.14
2023-05-12T20:53:01.352Z,43.45
2023-05-12T20:55:30.610Z,43.13
2023-05-12T20:57:58.688Z,43.37
2023-05-12T21:00:37.953Z,43.36
2023-05-12T21:03:06.830Z,42.96
2023-05-12T21:05:35.499Z,43.27
2023-05-12T21:08:03.729Z,43.05
2023-05-12T21:10:32.867Z,42.71
2023-05-12T21:13:01.138Z,43.05
2023-05-12T21:15:36.904Z,42.92
2023-05-12T21:18:07.157Z,42.68
2023-05-12T21:20:35.507Z,42.71
2023-05-12T21:23:04.036Z,42.49
2023-05-12T21:25:32.143Z,42.49
2023-05-12T21:28:00.630Z,42.38
2023-05-12T21:30:41.929Z,42.36
2023-05-12T21:33:11.509Z,42.13
2023-05-12T21:35:39.734Z,42.59
2023-05-12T21:38:08.622Z,42.68
2023-05-12T21:40:37.178Z,42.82
2023-05-12T21:43:06.721Z,43.03
2023-05-12T21:45:35.165Z,43.19
2023-05-12T21:48:03.231Z,43.21
2023-05-12T21:50:33.611Z,43.84
2023-05-12T21:53:02.119Z,43.52
2023-05-12T21:55:30.416Z,44.01
2023-05-12T21:57:58.778Z,44.18
2023-05-12T22:00:27.591Z,44.52
2023-05-12T22:02:55.958Z,44.49
2023-05-12T22:05:24.958Z,44.37
2023-05-12T22:07:55.805Z,44.79
2023-05-12T22:10:24.026Z,45.13
2023-05-12T22:12:52.264Z,44.98
2023-05-12T22:15:37.725Z,45.40
2023-05-12T22:18:05.923Z,45.38
2023-05-12T22:20:34.602Z,45.01
2023-05-12T22:23:04.371Z,45.74
2023-05-12T22:25:32.662Z,45.47
2023-05-12T22:28:00.764Z,45.90
2023-05-12T22:30:37.503Z,45.90
2023-05-12T22:33:05.925Z,45.95
2023-05-12T22:35:34.088Z,45.94
2023-05-12T22:38:03.699Z,46.29
2023-05-12T22:40:32.960Z,46.14
2023-05-12T22:43:02.151Z,46.32
2023-05-12T22:45:30.363Z,46.61
2023-05-12T22:47:58.476Z,47.05
2023-05-12T22:50:39.017Z,46.77
2023-05-12T22:53:08.602Z,46.69
2023-05-12T22:55:37.088Z,47.21
2023-05-12T22:58:05.193Z,47.15
2023-05-12T23:00:33.370Z,47.13
2023-05-12T23:03:03.587Z,47.78
2023-05-12T23:05:32.083Z,46.88
2023-05-12T23:08:00.471Z,47.39
2023-05-12T23:10:30.312Z,47.07
2023-05-12T23:12:58.412Z,47.02
2023-05-12T23:15:26.868Z,47.11
2023-05-12T23:17:55.000Z,46.96
2023-05-12T23:20:23.460Z,47.16
2023-05-12T23:22:51.860Z,47.74
2023-05-12T23:25:20.070Z,47.33
2023-05-12T23:27:49.796Z,47.96
2023-05-12T23:30:19.199Z,47.58
2023-05-12T23:32:50.374Z,47.68
2023-05-12T23:35:19.137Z,47.34
2023-05-12T23:37:47.308Z,47.81
2023-05-12T23:40:15.622Z,47.80
2023-05-12T23:42:45.231Z,48.24
2023-05-12T23:45:16.173Z,47.48
2023-05-12T23:47:44.653Z,47.55
2023-05-12T23:50:13.139Z,47.83
2023-05-12T23:52:41.237Z,47.96
2023-05-12T23:55:11.684Z,47.80
2023-05-12T23:57:39.734Z,48.16
